Rms Voerde — V2AD8 — position and weather

sailwx.info

Track history (hours):
 
Tides and Currents Weather Stations Pressure Air Temp Water Temp Dewpoint Dewpoint Depression Visibility Wind Speed Wind Dir Waves Ship Positions

Rms Voerde

Last reported at 2015-Mar-12 08:10 UTC. Time now 2015-Mar-30 16:18 UTC.
Position S 28°09' E 032°47'.
Warning: this ship's position is 18 days out of date.

Length 90 m; draft 3.7 m.

Type: Cargo ship. MMSI: 304010905.

Date/timePositionNaut miles runAvg speedWind from/ knotsBaromVisibWave heightAir tempDewpointWater temp
2015-Mar-12 08:10S 28°09' E 032°47'5 6.3
2015-Mar-12 07:22S 28°14' E 032°45'10 8.6
2015-Mar-12 06:13S 28°23' E 032°42'69 7.8
2015-Mar-11 21:27S 29°20' E 031°57'6 7.0
2015-Mar-11 20:33S 29°23' E 031°51'7 7.0
2015-Mar-11 19:33S 29°27' E 031°44'9 9.0
2015-Mar-11 18:33S 29°32' E 031°36'10 9.6
2015-Mar-11 17:33S 29°38' E 031°27'10 9.7
2015-Mar-11 16:33S 29°43' E 031°18'1010.3
2015-Mar-11 15:33S 29°49' E 031°08'8 7.6
2015-Mar-11 14:33S 29°53' E 031°00'1 0.6
2015-Mar-11 13:33S 29°53' E 031°00'0 0.0
2015-Mar-11 12:33S 29°53' E 031°00'0 0.0
2015-Mar-11 11:32S 29°53' E 031°00'0 0.0
2015-Mar-11 10:33S 29°53' E 031°00'0 0.0
2015-Mar-11 09:33S 29°53' E 031°00'0 0.0
2015-Mar-11 08:33S 29°53' E 031°00'0 0.0
2015-Mar-11 07:27S 29°53' E 031°00'0 0.0
2015-Mar-11 06:33S 29°53' E 031°00'0 0.0
2015-Mar-11 05:33S 29°53' E 031°00'0 0.0
2015-Mar-11 04:33S 29°53' E 031°00'0 0.0
2015-Mar-11 03:33S 29°53' E 031°00'0 0.0
2015-Mar-11 02:33S 29°53' E 031°00'0 0.0
2015-Mar-11 01:33S 29°53' E 031°00'0 0.0
2015-Mar-11 00:33S 29°53' E 031°00'0 0.0
2015-Mar-10 23:33S 29°53' E 031°00'0 0.0
2015-Mar-10 22:33S 29°53' E 031°00'0 0.0
2015-Mar-10 21:33S 29°53' E 031°00'0 0.0
2015-Mar-10 20:33S 29°53' E 031°00'0 0.0
2015-Mar-10 19:33S 29°53' E 031°00'0 0.0
2015-Mar-10 18:32S 29°53' E 031°00'0 0.0
2015-Mar-10 17:33S 29°53' E 031°00'0 0.0
2015-Mar-10 16:33S 29°53' E 031°00'0 0.0
2015-Mar-09 15:33S 29°53' E 031°00'0 0.0
2015-Mar-09 14:15S 29°53' E 031°00'0 0.0
2015-Mar-09 11:14S 29°53' E 031°00'0 0.0
2015-Mar-09 08:17S 29°53' E 031°00'0 0.0
2015-Mar-09 05:13S 29°53' E 031°00'0 0.0
2015-Mar-09 03:33S 29°53' E 031°00'0 0.0
2015-Mar-09 02:33S 29°53' E 031°00'0 0.0
2015-Mar-09 01:33S 29°53' E 031°00'0 0.0
2015-Mar-09 00:33S 29°53' E 031°00'0 0.0
2015-Mar-08 23:33S 29°53' E 031°00'0 0.0
2015-Mar-08 22:33S 29°53' E 031°00'0 0.0
2015-Mar-08 21:33S 29°53' E 031°00'0 0.0
2015-Mar-08 20:33S 29°53' E 031°00'0 0.0
2015-Mar-08 19:33S 29°53' E 031°00'0 0.0
2015-Mar-08 18:33S 29°53' E 031°00'0 0.0
2015-Mar-08 17:33S 29°53' E 031°00'0 0.0
2015-Mar-08 16:33S 29°53' E 031°00'0 0.0
2015-Mar-08 15:33S 29°53' E 031°00'0 0.0
2015-Mar-08 14:33S 29°53' E 031°00'1 0.7
2015-Mar-08 13:33S 29°53' E 031°00'8 8.3
2015-Mar-08 12:33S 29°48' E 031°08'2 1.8
2015-Mar-08 11:33S 29°47' E 031°10'6 6.3
2015-Mar-08 10:33S 29°43' E 031°16'8 7.6
2015-Mar-08 09:33S 29°42' E 031°25'8 8.1
2015-Mar-08 08:33S 29°48' E 031°18'9 9.5
2015-Mar-08 07:33S 29°50' E 031°07'7 6.8
2015-Mar-08 06:33S 29°53' E 031°00'0 0.0
2015-Mar-08 05:23S 29°53' E 031°00'0 0.0
2015-Mar-08 04:29S 29°53' E 031°00'0 0.1
2015-Mar-08 03:28S 29°53' E 031°00'0 0.0
2015-Mar-08 02:28S 29°53' E 031°00'0 0.0
2015-Mar-08 01:33S 29°53' E 031°00'0 0.0
2015-Mar-08 00:33S 29°53' E 031°00'0 0.0
2015-Mar-07 23:33S 29°53' E 031°00'0 0.0
2015-Mar-07 22:32S 29°53' E 031°00'0 0.0
2015-Mar-07 21:32S 29°53' E 031°00'0 0.0
2015-Mar-07 20:31S 29°53' E 031°00'0 0.0
2015-Mar-07 19:31S 29°53' E 031°00'0 0.0
2015-Mar-07 18:30S 29°53' E 031°00'0 0.0
2015-Mar-07 17:30S 29°53' E 031°00'0 0.0
2015-Mar-07 16:23S 29°53' E 031°00'0 0.0
2015-Mar-07 15:29S 29°53' E 031°00'0 0.0
2015-Mar-07 14:29S 29°53' E 031°00'0 0.0
2015-Mar-07 13:28S 29°53' E 031°00'0 0.0
2015-Mar-07 12:28S 29°53' E 031°00'0 0.0
2015-Mar-07 11:33S 29°53' E 031°00'0 0.0
2015-Mar-07 10:33S 29°53' E 031°00'0 0.0
2015-Mar-07 09:26S 29°53' E 031°00'0 0.0
2015-Mar-07 08:32S 29°53' E 031°00'0 0.0
2015-Mar-07 07:26S 29°53' E 031°00'0 0.0
2015-Mar-07 06:25S 29°53' E 031°00'0 0.0
2015-Mar-07 05:19S 29°53' E 031°00'0 0.0
2015-Mar-07 04:30S 29°53' E 031°00'0 0.0
2015-Mar-07 03:18S 29°53' E 031°00'0 0.0
2015-Mar-07 02:29S 29°53' E 031°00'0 0.0
2015-Mar-07 01:29S 29°53' E 031°00'0 0.0
2015-Mar-07 00:29S 29°53' E 031°00'0 0.0
2015-Mar-06 23:28S 29°53' E 031°00'0 0.0
2015-Mar-06 22:28S 29°53' E 031°00'0 0.0
2015-Mar-06 21:33S 29°53' E 031°00'0 0.0
2015-Mar-06 20:33S 29°53' E 031°00'0 0.0
2015-Mar-06 19:32S 29°53' E 031°00'0 0.0
2015-Mar-06 18:32S 29°53' E 031°00'0 0.0
2015-Mar-06 17:25S 29°53' E 031°00'0 0.0
2015-Mar-06 16:31S 29°53' E 031°00'0 0.0
2015-Mar-06 15:31S 29°53' E 031°00'0 0.0
2015-Mar-06 14:18S 29°53' E 031°00'0 0.0
2015-Mar-06 13:30S 29°53' E 031°00'0 0.0
2015-Mar-06 12:29S 29°53' E 031°00'0 0.0
2015-Mar-06 11:29S 29°53' E 031°00'0 0.0
2015-Mar-06 10:22S 29°53' E 031°00'0 0.0
2015-Mar-06 09:28S 29°53' E 031°00'0 0.0
2015-Mar-06 08:28S 29°53' E 031°00'0 0.0
2015-Mar-06 07:33S 29°53' E 031°00'0 0.0
2015-Mar-06 06:33S 29°53' E 031°00'0 0.0
2015-Mar-06 05:32S 29°53' E 031°00'0 0.0
2015-Mar-06 04:26S 29°53' E 031°00'0 0.0
2015-Mar-06 03:32S 29°53' E 031°00'0 0.0
2015-Mar-06 02:19S 29°53' E 031°00'0 0.0
2015-Mar-06 01:31S 29°53' E 031°00'0 0.0
2015-Mar-06 00:24S 29°53' E 031°00'0 0.0
2015-Mar-05 23:30S 29°53' E 031°00'0 0.0
2015-Mar-05 22:29S 29°53' E 031°00'0 0.0
2015-Mar-05 21:29S 29°53' E 031°00'0 0.0
2015-Mar-05 20:16S 29°53' E 031°00'0 0.0
2015-Mar-05 19:28S 29°53' E 031°00'0 0.0
2015-Mar-05 18:28S 29°53' E 031°00'0 0.0
2015-Mar-05 17:21S 29°53' E 031°00'0 0.0
2015-Mar-05 16:27S 29°53' E 031°00'0 0.0
2015-Mar-05 15:32S 29°53' E 031°00'0 0.0
2015-Mar-05 14:20S 29°53' E 031°00'0 0.0
2015-Mar-05 13:31S 29°53' E 031°00'0 0.0
2015-Mar-05 12:31S 29°53' E 031°00'0 0.0
2015-Mar-05 11:31S 29°53' E 031°00'0 0.0
2015-Mar-05 10:06S 29°53' E 031°00'0 0.0
2015-Mar-05 09:30S 29°53' E 031°00'0 0.0
2015-Mar-05 08:29S 29°53' E 031°00'0 0.0
2015-Mar-05 07:29S 29°53' E 031°00'0 0.0
2015-Mar-05 06:28S 29°53' E 031°00'0 0.0
2015-Mar-05 05:28S 29°53' E 031°00'0 0.0
2015-Mar-05 04:28S 29°53' E 031°00'0 0.0
2015-Mar-05 03:33S 29°53' E 031°00'0 0.0
2015-Mar-05 02:33S 29°53' E 031°00'0 0.0
2015-Mar-05 01:32S 29°53' E 031°00'0 0.0
2015-Mar-05 00:32S 29°53' E 031°00'0 0.0
2015-Mar-04 23:31S 29°53' E 031°00'0 0.0
2015-Mar-04 22:31S 29°53' E 031°00'0 0.0
2015-Mar-04 21:30S 29°53' E 031°00'0 0.0
2015-Mar-04 20:30S 29°53' E 031°00'0 0.0
2015-Mar-04 19:30S 29°53' E 031°00'0 0.0
2015-Mar-04 18:29S 29°53' E 031°00'0 0.0
2015-Mar-04 17:29S 29°53' E 031°00'0 0.0
2015-Mar-04 16:28S 29°53' E 031°00'0 0.0
2015-Mar-04 15:28S 29°53' E 031°00'0 0.0
2015-Mar-04 14:27S 29°53' E 031°00'0 0.0
2015-Mar-04 13:27S 29°53' E 031°00'0 0.1
2015-Mar-04 12:31S 29°53' E 031°00'0 0.0
2015-Mar-04 11:31S 29°53' E 031°00'0 0.0
2015-Mar-04 10:30S 29°53' E 031°00'0 0.0
2015-Mar-04 09:30S 29°53' E 031°00'0 0.0
2015-Mar-04 08:29S 29°53' E 031°00'0 0.0
2015-Mar-04 07:29S 29°53' E 031°00'0 0.0
2015-Mar-04 06:28S 29°53' E 031°00'0 0.0
2015-Mar-04 05:28S 29°53' E 031°00'0 0.0
2015-Mar-04 04:33S 29°53' E 031°00'0 0.0
2015-Mar-04 03:33S 29°53' E 031°00'0 0.0
2015-Mar-04 02:33S 29°53' E 031°00'0 0.0
2015-Mar-04 01:32S 29°53' E 031°00'0 0.0
2015-Mar-03 23:31S 29°53' E 031°00'0 0.0
2015-Mar-03 22:31S 29°53' E 031°00'0 0.0
2015-Mar-03 21:30S 29°53' E 031°00'0 0.0
2015-Mar-03 20:30S 29°53' E 031°00'0 0.0
2015-Mar-03 19:30S 29°53' E 031°00'0 0.0
2015-Mar-03 18:29S 29°53' E 031°00'0 0.0
2015-Mar-03 17:23S 29°53' E 031°00'0 0.0
2015-Mar-03 16:28S 29°53' E 031°00'0 0.0
2015-Mar-03 15:28S 29°53' E 031°00'0 0.0
2015-Mar-03 14:33S 29°53' E 031°00'0 0.0
2015-Mar-03 13:27S 29°53' E 031°00'0 0.0
2015-Mar-03 12:33S 29°53' E 031°00'0 0.0
2015-Mar-03 11:32S 29°53' E 031°00'0 0.0
2015-Mar-03 10:32S 29°53' E 031°00'0 0.0
2015-Mar-03 09:32S 29°53' E 031°00'0 0.0
2015-Mar-03 08:30S 29°53' E 031°00'0 0.0
2015-Mar-03 07:30S 29°53' E 031°00'0 0.0
2015-Mar-03 06:29S 29°53' E 031°00'0 0.0
2015-Mar-03 05:29S 29°53' E 031°00'0 0.0
2015-Mar-03 04:28S 29°53' E 031°00'0 0.0
2015-Mar-03 03:25S 29°53' E 031°00'0 0.0
2015-Mar-03 02:31S 29°53' E 031°00'0 0.0
2015-Mar-03 01:30S 29°53' E 031°00'0 0.0
2015-Mar-03 00:18S 29°53' E 031°00'0 0.0
2015-Mar-02 23:17S 29°53' E 031°00'0 0.0
2015-Mar-02 22:29S 29°53' E 031°00'0 0.0
2015-Mar-02 21:29S 29°53' E 031°00'0 0.0
2015-Mar-02 20:22S 29°53' E 031°00'0 0.0
2015-Mar-02 19:22S 29°53' E 031°00'0 0.0
2015-Mar-02 18:21S 29°53' E 031°00'0 0.0
2015-Mar-02 17:33S 29°53' E 031°00'0 0.0
2015-Mar-02 16:20S 29°53' E 031°00'0 0.0
2015-Mar-02 15:14S 29°53' E 031°00'0 0.0
2015-Mar-02 13:25S 29°53' E 031°00'0 0.0
2015-Mar-02 12:19S 29°53' E 031°00'0 0.0
2015-Mar-02 11:30S 29°53' E 031°00'0 0.0
2015-Mar-02 10:12S 29°53' E 031°00'0 0.0
2015-Mar-02 09:23S 29°53' E 031°00'0 0.0
2015-Mar-02 08:29S 29°53' E 031°00'  
Track history (hours):
 
Tides and Currents Weather Stations Pressure Air Temp Water Temp Dewpoint Dewpoint Depression Visibility Wind Speed Wind Dir Waves Ship Positions

Rms Voerde

Last reported at 2015-Mar-12 08:10 UTC. Time now 2015-Mar-30 16:18 UTC.
Position S 28°09' E 032°47'.
Warning: this ship's position is 18 days out of date.

Length 90 m; draft 3.7 m.

Type: Cargo ship. MMSI: 304010905.

Date/timePositionNaut miles runAvg speedWind from/ knotsBaromVisibWave heightAir tempDewpointWater temp
2015-Mar-12 08:10S 28°09' E 032°47'5 6.3
2015-Mar-12 07:22S 28°14' E 032°45'10 8.6
2015-Mar-12 06:13S 28°23' E 032°42'69 7.8
2015-Mar-11 21:27S 29°20' E 031°57'6 7.0
2015-Mar-11 20:33S 29°23' E 031°51'7 7.0
2015-Mar-11 19:33S 29°27' E 031°44'9 9.0
2015-Mar-11 18:33S 29°32' E 031°36'10 9.6
2015-Mar-11 17:33S 29°38' E 031°27'10 9.7
2015-Mar-11 16:33S 29°43' E 031°18'1010.3
2015-Mar-11 15:33S 29°49' E 031°08'8 7.6
2015-Mar-11 14:33S 29°53' E 031°00'1 0.6
2015-Mar-11 13:33S 29°53' E 031°00'0 0.0
2015-Mar-11 12:33S 29°53' E 031°00'0 0.0
2015-Mar-11 11:32S 29°53' E 031°00'0 0.0
2015-Mar-11 10:33S 29°53' E 031°00'0 0.0
2015-Mar-11 09:33S 29°53' E 031°00'0 0.0
2015-Mar-11 08:33S 29°53' E 031°00'0 0.0
2015-Mar-11 07:27S 29°53' E 031°00'0 0.0
2015-Mar-11 06:33S 29°53' E 031°00'0 0.0
2015-Mar-11 05:33S 29°53' E 031°00'0 0.0
2015-Mar-11 04:33S 29°53' E 031°00'0 0.0
2015-Mar-11 03:33S 29°53' E 031°00'0 0.0
2015-Mar-11 02:33S 29°53' E 031°00'0 0.0
2015-Mar-11 01:33S 29°53' E 031°00'0 0.0
2015-Mar-11 00:33S 29°53' E 031°00'0 0.0
2015-Mar-10 23:33S 29°53' E 031°00'0 0.0
2015-Mar-10 22:33S 29°53' E 031°00'0 0.0
2015-Mar-10 21:33S 29°53' E 031°00'0 0.0
2015-Mar-10 20:33S 29°53' E 031°00'0 0.0
2015-Mar-10 19:33S 29°53' E 031°00'0 0.0
2015-Mar-10 18:32S 29°53' E 031°00'0 0.0
2015-Mar-10 17:33S 29°53' E 031°00'0 0.0
2015-Mar-10 16:33S 29°53' E 031°00'0 0.0
2015-Mar-09 15:33S 29°53' E 031°00'0 0.0
2015-Mar-09 14:15S 29°53' E 031°00'0 0.0
2015-Mar-09 11:14S 29°53' E 031°00'0 0.0
2015-Mar-09 08:17S 29°53' E 031°00'0 0.0
2015-Mar-09 05:13S 29°53' E 031°00'0 0.0
2015-Mar-09 03:33S 29°53' E 031°00'0 0.0
2015-Mar-09 02:33S 29°53' E 031°00'0 0.0
2015-Mar-09 01:33S 29°53' E 031°00'0 0.0
2015-Mar-09 00:33S 29°53' E 031°00'0 0.0
2015-Mar-08 23:33S 29°53' E 031°00'0 0.0
2015-Mar-08 22:33S 29°53' E 031°00'0 0.0
2015-Mar-08 21:33S 29°53' E 031°00'0 0.0
2015-Mar-08 20:33S 29°53' E 031°00'0 0.0
2015-Mar-08 19:33S 29°53' E 031°00'0 0.0
2015-Mar-08 18:33S 29°53' E 031°00'0 0.0
2015-Mar-08 17:33S 29°53' E 031°00'0 0.0
2015-Mar-08 16:33S 29°53' E 031°00'0 0.0
2015-Mar-08 15:33S 29°53' E 031°00'0 0.0
2015-Mar-08 14:33S 29°53' E 031°00'1 0.7
2015-Mar-08 13:33S 29°53' E 031°00'8 8.3
2015-Mar-08 12:33S 29°48' E 031°08'2 1.8
2015-Mar-08 11:33S 29°47' E 031°10'6 6.3
2015-Mar-08 10:33S 29°43' E 031°16'8 7.6
2015-Mar-08 09:33S 29°42' E 031°25'8 8.1
2015-Mar-08 08:33S 29°48' E 031°18'9 9.5
2015-Mar-08 07:33S 29°50' E 031°07'7 6.8
2015-Mar-08 06:33S 29°53' E 031°00'0 0.0
2015-Mar-08 05:23S 29°53' E 031°00'0 0.0
2015-Mar-08 04:29S 29°53' E 031°00'0 0.1
2015-Mar-08 03:28S 29°53' E 031°00'0 0.0
2015-Mar-08 02:28S 29°53' E 031°00'0 0.0
2015-Mar-08 01:33S 29°53' E 031°00'0 0.0
2015-Mar-08 00:33S 29°53' E 031°00'0 0.0
2015-Mar-07 23:33S 29°53' E 031°00'0 0.0
2015-Mar-07 22:32S 29°53' E 031°00'0 0.0
2015-Mar-07 21:32S 29°53' E 031°00'0 0.0
2015-Mar-07 20:31S 29°53' E 031°00'0 0.0
2015-Mar-07 19:31S 29°53' E 031°00'0 0.0
2015-Mar-07 18:30S 29°53' E 031°00'0 0.0
2015-Mar-07 17:30S 29°53' E 031°00'0 0.0
2015-Mar-07 16:23S 29°53' E 031°00'0 0.0
2015-Mar-07 15:29S 29°53' E 031°00'0 0.0
2015-Mar-07 14:29S 29°53' E 031°00'0 0.0
2015-Mar-07 13:28S 29°53' E 031°00'0 0.0
2015-Mar-07 12:28S 29°53' E 031°00'0 0.0
2015-Mar-07 11:33S 29°53' E 031°00'0 0.0
2015-Mar-07 10:33S 29°53' E 031°00'0 0.0
2015-Mar-07 09:26S 29°53' E 031°00'0 0.0
2015-Mar-07 08:32S 29°53' E 031°00'0 0.0
2015-Mar-07 07:26S 29°53' E 031°00'0 0.0
2015-Mar-07 06:25S 29°53' E 031°00'0 0.0
2015-Mar-07 05:19S 29°53' E 031°00'0 0.0
2015-Mar-07 04:30S 29°53' E 031°00'0 0.0
2015-Mar-07 03:18S 29°53' E 031°00'0 0.0
2015-Mar-07 02:29S 29°53' E 031°00'0 0.0
2015-Mar-07 01:29S 29°53' E 031°00'0 0.0
2015-Mar-07 00:29S 29°53' E 031°00'0 0.0
2015-Mar-06 23:28S 29°53' E 031°00'0 0.0
2015-Mar-06 22:28S 29°53' E 031°00'0 0.0
2015-Mar-06 21:33S 29°53' E 031°00'0 0.0
2015-Mar-06 20:33S 29°53' E 031°00'0 0.0
2015-Mar-06 19:32S 29°53' E 031°00'0 0.0
2015-Mar-06 18:32S 29°53' E 031°00'0 0.0
2015-Mar-06 17:25S 29°53' E 031°00'0 0.0
2015-Mar-06 16:31S 29°53' E 031°00'0 0.0
2015-Mar-06 15:31S 29°53' E 031°00'0 0.0
2015-Mar-06 14:18S 29°53' E 031°00'0 0.0
2015-Mar-06 13:30S 29°53' E 031°00'0 0.0
2015-Mar-06 12:29S 29°53' E 031°00'0 0.0
2015-Mar-06 11:29S 29°53' E 031°00'0 0.0
2015-Mar-06 10:22S 29°53' E 031°00'0 0.0
2015-Mar-06 09:28S 29°53' E 031°00'0 0.0
2015-Mar-06 08:28S 29°53' E 031°00'0 0.0
2015-Mar-06 07:33S 29°53' E 031°00'0 0.0
2015-Mar-06 06:33S 29°53' E 031°00'0 0.0
2015-Mar-06 05:32S 29°53' E 031°00'0 0.0
2015-Mar-06 04:26S 29°53' E 031°00'0 0.0
2015-Mar-06 03:32S 29°53' E 031°00'0 0.0
2015-Mar-06 02:19S 29°53' E 031°00'0 0.0
2015-Mar-06 01:31S 29°53' E 031°00'0 0.0
2015-Mar-06 00:24S 29°53' E 031°00'0 0.0
2015-Mar-05 23:30S 29°53' E 031°00'0 0.0
2015-Mar-05 22:29S 29°53' E 031°00'0 0.0
2015-Mar-05 21:29S 29°53' E 031°00'0 0.0
2015-Mar-05 20:16S 29°53' E 031°00'0 0.0
2015-Mar-05 19:28S 29°53' E 031°00'0 0.0
2015-Mar-05 18:28S 29°53' E 031°00'0 0.0
2015-Mar-05 17:21S 29°53' E 031°00'0 0.0
2015-Mar-05 16:27S 29°53' E 031°00'0 0.0
2015-Mar-05 15:32S 29°53' E 031°00'0 0.0
2015-Mar-05 14:20S 29°53' E 031°00'0 0.0
2015-Mar-05 13:31S 29°53' E 031°00'0 0.0
2015-Mar-05 12:31S 29°53' E 031°00'0 0.0
2015-Mar-05 11:31S 29°53' E 031°00'0 0.0
2015-Mar-05 10:06S 29°53' E 031°00'0 0.0
2015-Mar-05 09:30S 29°53' E 031°00'0 0.0
2015-Mar-05 08:29S 29°53' E 031°00'0 0.0
2015-Mar-05 07:29S 29°53' E 031°00'0 0.0
2015-Mar-05 06:28S 29°53' E 031°00'0 0.0
2015-Mar-05 05:28S 29°53' E 031°00'0 0.0
2015-Mar-05 04:28S 29°53' E 031°00'0 0.0
2015-Mar-05 03:33S 29°53' E 031°00'0 0.0
2015-Mar-05 02:33S 29°53' E 031°00'0 0.0
2015-Mar-05 01:32S 29°53' E 031°00'0 0.0
2015-Mar-05 00:32S 29°53' E 031°00'0 0.0
2015-Mar-04 23:31S 29°53' E 031°00'0 0.0
2015-Mar-04 22:31S 29°53' E 031°00'0 0.0
2015-Mar-04 21:30S 29°53' E 031°00'0 0.0
2015-Mar-04 20:30S 29°53' E 031°00'0 0.0
2015-Mar-04 19:30S 29°53' E 031°00'0 0.0
2015-Mar-04 18:29S 29°53' E 031°00'0 0.0
2015-Mar-04 17:29S 29°53' E 031°00'0 0.0
2015-Mar-04 16:28S 29°53' E 031°00'0 0.0
2015-Mar-04 15:28S 29°53' E 031°00'0 0.0
2015-Mar-04 14:27S 29°53' E 031°00'0 0.0
2015-Mar-04 13:27S 29°53' E 031°00'0 0.1
2015-Mar-04 12:31S 29°53' E 031°00'0 0.0
2015-Mar-04 11:31S 29°53' E 031°00'0 0.0
2015-Mar-04 10:30S 29°53' E 031°00'0 0.0
2015-Mar-04 09:30S 29°53' E 031°00'0 0.0
2015-Mar-04 08:29S 29°53' E 031°00'0 0.0
2015-Mar-04 07:29S 29°53' E 031°00'0 0.0
2015-Mar-04 06:28S 29°53' E 031°00'0 0.0
2015-Mar-04 05:28S 29°53' E 031°00'0 0.0
2015-Mar-04 04:33S 29°53' E 031°00'0 0.0
2015-Mar-04 03:33S 29°53' E 031°00'0 0.0
2015-Mar-04 02:33S 29°53' E 031°00'0 0.0
2015-Mar-04 01:32S 29°53' E 031°00'0 0.0
2015-Mar-03 23:31S 29°53' E 031°00'0 0.0
2015-Mar-03 22:31S 29°53' E 031°00'0 0.0
2015-Mar-03 21:30S 29°53' E 031°00'0 0.0
2015-Mar-03 20:30S 29°53' E 031°00'0 0.0
2015-Mar-03 19:30S 29°53' E 031°00'0 0.0
2015-Mar-03 18:29S 29°53' E 031°00'0 0.0
2015-Mar-03 17:23S 29°53' E 031°00'0 0.0
2015-Mar-03 16:28S 29°53' E 031°00'0 0.0
2015-Mar-03 15:28S 29°53' E 031°00'0 0.0
2015-Mar-03 14:33S 29°53' E 031°00'0 0.0
2015-Mar-03 13:27S 29°53' E 031°00'0 0.0
2015-Mar-03 12:33S 29°53' E 031°00'0 0.0
2015-Mar-03 11:32S 29°53' E 031°00'0 0.0
2015-Mar-03 10:32S 29°53' E 031°00'0 0.0
2015-Mar-03 09:32S 29°53' E 031°00'0 0.0
2015-Mar-03 08:30S 29°53' E 031°00'0 0.0
2015-Mar-03 07:30S 29°53' E 031°00'0 0.0
2015-Mar-03 06:29S 29°53' E 031°00'0 0.0
2015-Mar-03 05:29S 29°53' E 031°00'0 0.0
2015-Mar-03 04:28S 29°53' E 031°00'0 0.0
2015-Mar-03 03:25S 29°53' E 031°00'0 0.0
2015-Mar-03 02:31S 29°53' E 031°00'0 0.0
2015-Mar-03 01:30S 29°53' E 031°00'0 0.0
2015-Mar-03 00:18S 29°53' E 031°00'0 0.0
2015-Mar-02 23:17S 29°53' E 031°00'0 0.0
2015-Mar-02 22:29S 29°53' E 031°00'0 0.0
2015-Mar-02 21:29S 29°53' E 031°00'0 0.0
2015-Mar-02 20:22S 29°53' E 031°00'0 0.0
2015-Mar-02 19:22S 29°53' E 031°00'0 0.0
2015-Mar-02 18:21S 29°53' E 031°00'0 0.0
2015-Mar-02 17:33S 29°53' E 031°00'0 0.0
2015-Mar-02 16:20S 29°53' E 031°00'0 0.0
2015-Mar-02 15:14S 29°53' E 031°00'0 0.0
2015-Mar-02 13:25S 29°53' E 031°00'0 0.0
2015-Mar-02 12:19S 29°53' E 031°00'0 0.0
2015-Mar-02 11:30S 29°53' E 031°00'0 0.0
2015-Mar-02 10:12S 29°53' E 031°00'0 0.0
2015-Mar-02 09:23S 29°53' E 031°00'0 0.0
2015-Mar-02 08:29S 29°53' E 031°00'  

Dump ship's entire track history